الصفحة الرئيسية
METAR-TAF:

METAR-TAF

مطار :

Alamosa, كولورادو, الولايات المتحدة

دائرة عرض: 37-26-20N, خط طول: 105-51-41W, ارتفاع: 2297 متر

مراقبة الطقس الحالي

تاريخ ووقت الإصدار 59 دقيقة قبل الساعة 13:52UTC
رياح هادئة
درجة الحرارة -19°درجة مئوية
الرطوبة 77%
ضغط 1030 hPa
الرؤية: 14.5 كم
سماء صافية

METAR: KALS 141352Z AUTO 00000KT 9SM CLR M19/M22 A3041 RMK AO2 SLP388 T11891222

زمن: 07:51 (14:51 UTC)

توقعات

تاريخ ووقت الإصدار 3ساعات و 12 دقيقة قبل الساعة 11:39UTC
التوقعات صالحة من14 الساعة 12 UTC إلى 15 الساعة 12 UTC
ريح 3 عقدةمن اتجاهات متغيرة
الرؤية: 10 كم
سماء صافية
من 15 الساعة 0000 UTC
ريح 4 عقدةمن اتجاهات متغيرة
الرؤية: 10 كم
غيوم متفرقة على ارتفاع 20000 قدم

TAF: KALS 141139Z 1412/1512 VRB03KT P6SM SKC FM150000 VRB04KT P6SM SCT200

أرصاد الطقس والتوقعات من أكثر من 4000 مطار (تقارير الطقس للمطار METAR والتنبؤ بالطقس بالمطارTAF).

المحطات المتاحة هي النقط الصفراء والحمراء على الخريطة.

حرك المؤشر فوق النقطة لمعرفة اسم المحطة.

ثم انقر لمعرفة أرصاد وتوقعات الطقس.

لتغيير الخارطة: اضغط على الأزرار الخضراء مع رمز الصليب الأسود للتكبير. على الزر الأخضر مع شرطة للتصغير، أو على الأسهم الخضراء للخرائط المجاورة.


METAR-TAF: